sensor_id;sensor_type;location;lat;lon;timestamp;P1;durP1;ratioP1;P2;durP2;ratioP2
69030;SDS011;56083;48.774;8.942;2023-05-14T00:01:52;21.52;;;15.93;;
69030;SDS011;56083;48.774;8.942;2023-05-14T00:04:17;22.73;;;17.25;;
69030;SDS011;56083;48.774;8.942;2023-05-14T00:06:45;22.70;;;17.23;;
69030;SDS011;56083;48.774;8.942;2023-05-14T00:09:11;24.05;;;16.70;;
69030;SDS011;56083;48.774;8.942;2023-05-14T00:11:37;21.55;;;17.13;;
69030;SDS011;56083;48.774;8.942;2023-05-14T00:14:02;20.55;;;15.68;;
69030;SDS011;56083;48.774;8.942;2023-05-14T00:16:28;24.73;;;16.38;;
69030;SDS011;56083;48.774;8.942;2023-05-14T00:18:54;26.80;;;17.48;;
69030;SDS011;56083;48.774;8.942;2023-05-14T00:21:19;24.33;;;17.58;;
69030;SDS011;56083;48.774;8.942;2023-05-14T00:23:45;22.55;;;16.83;;
69030;SDS011;56083;48.774;8.942;2023-05-14T00:26:11;24.50;;;16.80;;
69030;SDS011;56083;48.774;8.942;2023-05-14T00:28:36;21.77;;;16.92;;
69030;SDS011;56083;48.774;8.942;2023-05-14T00:31:02;22.00;;;17.15;;
69030;SDS011;56083;48.774;8.942;2023-05-14T00:33:28;27.95;;;17.60;;
69030;SDS011;56083;48.774;8.942;2023-05-14T00:35:53;22.75;;;17.02;;
69030;SDS011;56083;48.774;8.942;2023-05-14T00:38:19;21.35;;;15.25;;
69030;SDS011;56083;48.774;8.942;2023-05-14T00:40:45;22.30;;;16.05;;
69030;SDS011;56083;48.774;8.942;2023-05-14T00:43:16;22.13;;;15.57;;
69030;SDS011;56083;48.774;8.942;2023-05-14T00:45:46;20.70;;;15.73;;
69030;SDS011;56083;48.774;8.942;2023-05-14T00:48:16;27.25;;;18.20;;
69030;SDS011;56083;48.774;8.942;2023-05-14T00:50:42;29.45;;;17.25;;
69030;SDS011;56083;48.774;8.942;2023-05-14T00:53:08;22.67;;;17.52;;
69030;SDS011;56083;48.774;8.942;2023-05-14T00:55:37;20.80;;;15.90;;
69030;SDS011;56083;48.774;8.942;2023-05-14T00:58:06;21.13;;;16.10;;
69030;SDS011;56083;48.774;8.942;2023-05-14T01:00:34;21.60;;;15.90;;
69030;SDS011;56083;48.774;8.942;2023-05-14T01:03:01;22.85;;;16.27;;
69030;SDS011;56083;48.774;8.942;2023-05-14T01:06:14;19.48;;;15.40;;
69030;SDS011;56083;48.774;8.942;2023-05-14T01:10:59;26.83;;;16.80;;
69030;SDS011;56083;48.774;8.942;2023-05-14T01:16:01;23.90;;;17.17;;
69030;SDS011;56083;48.774;8.942;2023-05-14T01:18:29;21.20;;;16.05;;
69030;SDS011;56083;48.774;8.942;2023-05-14T01:20:56;24.30;;;17.88;;
69030;SDS011;56083;48.774;8.942;2023-05-14T01:23:22;24.55;;;17.77;;
69030;SDS011;56083;48.774;8.942;2023-05-14T01:25:47;29.02;;;18.05;;
69030;SDS011;56083;48.774;8.942;2023-05-14T01:30:55;22.17;;;17.58;;
69030;SDS011;56083;48.774;8.942;2023-05-14T01:33:24;23.92;;;16.80;;
69030;SDS011;56083;48.774;8.942;2023-05-14T01:35:53;23.30;;;17.45;;
69030;SDS011;56083;48.774;8.942;2023-05-14T01:38:19;23.83;;;17.02;;
69030;SDS011;56083;48.774;8.942;2023-05-14T01:40:47;24.92;;;17.73;;
69030;SDS011;56083;48.774;8.942;2023-05-14T01:43:14;24.70;;;18.08;;
69030;SDS011;56083;48.774;8.942;2023-05-14T01:45:40;25.42;;;18.67;;
69030;SDS011;56083;48.774;8.942;2023-05-14T01:48:07;30.40;;;19.95;;
69030;SDS011;56083;48.774;8.942;2023-05-14T01:50:33;28.02;;;20.38;;
69030;SDS011;56083;48.774;8.942;2023-05-14T01:52:59;25.00;;;19.50;;
69030;SDS011;56083;48.774;8.942;2023-05-14T01:55:25;28.63;;;20.73;;
69030;SDS011;56083;48.774;8.942;2023-05-14T01:57:50;27.23;;;19.33;;
69030;SDS011;56083;48.774;8.942;2023-05-14T02:00:16;23.92;;;17.20;;
69030;SDS011;56083;48.774;8.942;2023-05-14T02:02:42;21.73;;;16.52;;
69030;SDS011;56083;48.774;8.942;2023-05-14T02:05:09;20.30;;;16.02;;
69030;SDS011;56083;48.774;8.942;2023-05-14T02:07:35;21.92;;;16.33;;
69030;SDS011;56083;48.774;8.942;2023-05-14T02:10:01;22.58;;;15.82;;
69030;SDS011;56083;48.774;8.942;2023-05-14T02:12:26;18.23;;;15.40;;
69030;SDS011;56083;48.774;8.942;2023-05-14T02:14:52;19.52;;;15.75;;
69030;SDS011;56083;48.774;8.942;2023-05-14T02:17:18;19.42;;;15.73;;
69030;SDS011;56083;48.774;8.942;2023-05-14T02:19:44;19.65;;;15.15;;
69030;SDS011;56083;48.774;8.942;2023-05-14T02:22:10;21.92;;;16.08;;
69030;SDS011;56083;48.774;8.942;2023-05-14T02:24:36;23.65;;;15.93;;
69030;SDS011;56083;48.774;8.942;2023-05-14T02:27:02;20.95;;;16.23;;
69030;SDS011;56083;48.774;8.942;2023-05-14T02:29:28;26.65;;;17.08;;
69030;SDS011;56083;48.774;8.942;2023-05-14T02:31:54;23.98;;;17.15;;
69030;SDS011;56083;48.774;8.942;2023-05-14T02:34:20;23.30;;;18.15;;
69030;SDS011;56083;48.774;8.942;2023-05-14T02:36:45;22.98;;;17.88;;
69030;SDS011;56083;48.774;8.942;2023-05-14T02:39:11;21.45;;;17.65;;
69030;SDS011;56083;48.774;8.942;2023-05-14T02:41:37;24.95;;;18.17;;
69030;SDS011;56083;48.774;8.942;2023-05-14T02:44:02;29.90;;;19.25;;
69030;SDS011;56083;48.774;8.942;2023-05-14T02:46:29;29.05;;;19.42;;
69030;SDS011;56083;48.774;8.942;2023-05-14T02:48:55;32.65;;;21.33;;
69030;SDS011;56083;48.774;8.942;2023-05-14T02:51:21;34.08;;;22.17;;
69030;SDS011;56083;48.774;8.942;2023-05-14T02:53:47;36.08;;;23.20;;
69030;SDS011;56083;48.774;8.942;2023-05-14T02:56:12;32.70;;;22.60;;
69030;SDS011;56083;48.774;8.942;2023-05-14T02:58:38;33.78;;;23.92;;
69030;SDS011;56083;48.774;8.942;2023-05-14T03:01:04;33.88;;;23.08;;
69030;SDS011;56083;48.774;8.942;2023-05-14T03:03:29;31.83;;;22.27;;
69030;SDS011;56083;48.774;8.942;2023-05-14T03:05:55;40.10;;;23.80;;
69030;SDS011;56083;48.774;8.942;2023-05-14T03:08:21;38.58;;;23.10;;
69030;SDS011;56083;48.774;8.942;2023-05-14T03:10:47;33.80;;;22.33;;
69030;SDS011;56083;48.774;8.942;2023-05-14T03:13:12;36.47;;;23.15;;
69030;SDS011;56083;48.774;8.942;2023-05-14T03:15:41;31.63;;;22.27;;
69030;SDS011;56083;48.774;8.942;2023-05-14T03:18:07;33.60;;;22.38;;
69030;SDS011;56083;48.774;8.942;2023-05-14T03:20:33;29.80;;;20.40;;
69030;SDS011;56083;48.774;8.942;2023-05-14T03:22:59;36.22;;;21.45;;
69030;SDS011;56083;48.774;8.942;2023-05-14T03:25:24;28.75;;;19.75;;
69030;SDS011;56083;48.774;8.942;2023-05-14T03:27:50;31.02;;;21.02;;
69030;SDS011;56083;48.774;8.942;2023-05-14T03:30:16;29.42;;;20.83;;
69030;SDS011;56083;48.774;8.942;2023-05-14T03:32:42;34.85;;;21.27;;
69030;SDS011;56083;48.774;8.942;2023-05-14T03:35:07;28.95;;;20.50;;
69030;SDS011;56083;48.774;8.942;2023-05-14T03:37:33;28.30;;;20.25;;
69030;SDS011;56083;48.774;8.942;2023-05-14T03:39:59;30.75;;;20.98;;
69030;SDS011;56083;48.774;8.942;2023-05-14T03:42:24;32.22;;;21.50;;
69030;SDS011;56083;48.774;8.942;2023-05-14T03:44:51;30.88;;;21.75;;
69030;SDS011;56083;48.774;8.942;2023-05-14T03:47:16;34.65;;;21.73;;
69030;SDS011;56083;48.774;8.942;2023-05-14T03:49:42;36.55;;;21.80;;
69030;SDS011;56083;48.774;8.942;2023-05-14T03:52:07;35.97;;;22.13;;
69030;SDS011;56083;48.774;8.942;2023-05-14T03:54:33;37.53;;;21.95;;
69030;SDS011;56083;48.774;8.942;2023-05-14T03:56:59;34.30;;;22.20;;
69030;SDS011;56083;48.774;8.942;2023-05-14T03:59:25;30.98;;;21.90;;
69030;SDS011;56083;48.774;8.942;2023-05-14T04:01:51;28.05;;;20.70;;
69030;SDS011;56083;48.774;8.942;2023-05-14T04:04:17;32.45;;;21.55;;
69030;SDS011;56083;48.774;8.942;2023-05-14T04:06:42;26.63;;;19.52;;
69030;SDS011;56083;48.774;8.942;2023-05-14T04:09:08;37.85;;;20.90;;
69030;SDS011;56083;48.774;8.942;2023-05-14T04:11:36;31.45;;;20.02;;
69030;SDS011;56083;48.774;8.942;2023-05-14T04:14:01;30.38;;;19.75;;
69030;SDS011;56083;48.774;8.942;2023-05-14T04:16:27;27.23;;;19.15;;
69030;SDS011;56083;48.774;8.942;2023-05-14T04:18:53;29.10;;;20.00;;
69030;SDS011;56083;48.774;8.942;2023-05-14T04:21:18;27.20;;;18.45;;
69030;SDS011;56083;48.774;8.942;2023-05-14T04:23:47;33.47;;;19.98;;
69030;SDS011;56083;48.774;8.942;2023-05-14T04:26:12;30.63;;;19.52;;
69030;SDS011;56083;48.774;8.942;2023-05-14T04:28:38;27.45;;;19.33;;
69030;SDS011;56083;48.774;8.942;2023-05-14T04:31:04;27.80;;;19.77;;
69030;SDS011;56083;48.774;8.942;2023-05-14T04:33:30;28.45;;;18.88;;
69030;SDS011;56083;48.774;8.942;2023-05-14T04:35:55;23.58;;;17.73;;
69030;SDS011;56083;48.774;8.942;2023-05-14T04:38:21;22.85;;;16.27;;
69030;SDS011;56083;48.774;8.942;2023-05-14T04:40:47;23.73;;;16.83;;
69030;SDS011;56083;48.774;8.942;2023-05-14T04:43:12;25.38;;;17.50;;
69030;SDS011;56083;48.774;8.942;2023-05-14T04:45:38;25.23;;;17.45;;
69030;SDS011;56083;48.774;8.942;2023-05-14T04:48:05;23.85;;;15.82;;
69030;SDS011;56083;48.774;8.942;2023-05-14T04:50:32;19.60;;;15.57;;
69030;SDS011;56083;48.774;8.942;2023-05-14T04:52:58;22.25;;;15.35;;
69030;SDS011;56083;48.774;8.942;2023-05-14T04:55:24;19.48;;;14.18;;
69030;SDS011;56083;48.774;8.942;2023-05-14T04:57:50;20.42;;;14.07;;
69030;SDS011;56083;48.774;8.942;2023-05-14T05:00:15;19.00;;;13.82;;
69030;SDS011;56083;48.774;8.942;2023-05-14T05:02:41;20.90;;;14.38;;
69030;SDS011;56083;48.774;8.942;2023-05-14T05:05:07;17.40;;;13.30;;
69030;SDS011;56083;48.774;8.942;2023-05-14T05:07:33;22.27;;;13.25;;
69030;SDS011;56083;48.774;8.942;2023-05-14T05:09:59;17.67;;;13.25;;
69030;SDS011;56083;48.774;8.942;2023-05-14T05:12:25;18.55;;;13.60;;
69030;SDS011;56083;48.774;8.942;2023-05-14T05:14:54;22.83;;;13.45;;
69030;SDS011;56083;48.774;8.942;2023-05-14T05:17:23;19.52;;;12.25;;
69030;SDS011;56083;48.774;8.942;2023-05-14T05:19:49;17.27;;;11.88;;
69030;SDS011;56083;48.774;8.942;2023-05-14T05:22:14;17.10;;;12.65;;
69030;SDS011;56083;48.774;8.942;2023-05-14T05:24:40;15.93;;;11.60;;
69030;SDS011;56083;48.774;8.942;2023-05-14T05:27:06;20.20;;;12.27;;
69030;SDS011;56083;48.774;8.942;2023-05-14T05:29:33;18.98;;;12.73;;
69030;SDS011;56083;48.774;8.942;2023-05-14T05:31:59;16.42;;;11.82;;
69030;SDS011;56083;48.774;8.942;2023-05-14T05:34:25;18.23;;;11.30;;
69030;SDS011;56083;48.774;8.942;2023-05-14T05:36:51;15.68;;;11.27;;
69030;SDS011;56083;48.774;8.942;2023-05-14T05:39:16;16.40;;;11.07;;
69030;SDS011;56083;48.774;8.942;2023-05-14T05:41:42;15.98;;;10.77;;
69030;SDS011;56083;48.774;8.942;2023-05-14T05:44:08;16.08;;;10.50;;
69030;SDS011;56083;48.774;8.942;2023-05-14T05:46:34;12.85;;;9.73;;
69030;SDS011;56083;48.774;8.942;2023-05-14T05:48:59;14.25;;;10.15;;
69030;SDS011;56083;48.774;8.942;2023-05-14T05:51:25;14.57;;;9.60;;
69030;SDS011;56083;48.774;8.942;2023-05-14T05:53:50;16.98;;;9.65;;
69030;SDS011;56083;48.774;8.942;2023-05-14T05:56:16;15.05;;;10.02;;
69030;SDS011;56083;48.774;8.942;2023-05-14T05:58:42;14.32;;;9.68;;
69030;SDS011;56083;48.774;8.942;2023-05-14T06:01:07;11.50;;;9.13;;
69030;SDS011;56083;48.774;8.942;2023-05-14T06:03:33;12.43;;;9.30;;
69030;SDS011;56083;48.774;8.942;2023-05-14T06:05:59;14.48;;;9.02;;
69030;SDS011;56083;48.774;8.942;2023-05-14T06:08:24;11.43;;;8.77;;
69030;SDS011;56083;48.774;8.942;2023-05-14T06:10:50;13.70;;;9.25;;
69030;SDS011;56083;48.774;8.942;2023-05-14T06:13:16;11.75;;;8.30;;
69030;SDS011;56083;48.774;8.942;2023-05-14T06:15:41;13.48;;;8.20;;
69030;SDS011;56083;48.774;8.942;2023-05-14T06:18:07;13.10;;;9.15;;
69030;SDS011;56083;48.774;8.942;2023-05-14T06:20:33;14.20;;;8.90;;
69030;SDS011;56083;48.774;8.942;2023-05-14T06:22:58;11.20;;;8.75;;
69030;SDS011;56083;48.774;8.942;2023-05-14T06:25:24;13.52;;;9.65;;
69030;SDS011;56083;48.774;8.942;2023-05-14T06:27:50;11.23;;;8.88;;
69030;SDS011;56083;48.774;8.942;2023-05-14T06:30:15;13.10;;;9.43;;
69030;SDS011;56083;48.774;8.942;2023-05-14T06:32:41;11.52;;;9.25;;
69030;SDS011;56083;48.774;8.942;2023-05-14T06:35:06;11.95;;;10.00;;
69030;SDS011;56083;48.774;8.942;2023-05-14T06:37:32;12.50;;;9.77;;
69030;SDS011;56083;48.774;8.942;2023-05-14T06:39:59;12.27;;;9.85;;
69030;SDS011;56083;48.774;8.942;2023-05-14T06:42:25;10.35;;;8.60;;
69030;SDS011;56083;48.774;8.942;2023-05-14T06:44:50;10.57;;;8.40;;
69030;SDS011;56083;48.774;8.942;2023-05-14T06:47:16;11.48;;;9.00;;
69030;SDS011;56083;48.774;8.942;2023-05-14T06:49:41;10.45;;;8.48;;
69030;SDS011;56083;48.774;8.942;2023-05-14T06:52:07;10.38;;;8.48;;
69030;SDS011;56083;48.774;8.942;2023-05-14T06:54:33;10.95;;;8.05;;
69030;SDS011;56083;48.774;8.942;2023-05-14T06:56:58;9.90;;;7.80;;
69030;SDS011;56083;48.774;8.942;2023-05-14T06:59:24;11.43;;;7.57;;
69030;SDS011;56083;48.774;8.942;2023-05-14T07:01:50;10.98;;;8.00;;
69030;SDS011;56083;48.774;8.942;2023-05-14T07:04:15;12.77;;;8.18;;
69030;SDS011;56083;48.774;8.942;2023-05-14T07:06:41;12.57;;;8.30;;
69030;SDS011;56083;48.774;8.942;2023-05-14T07:09:07;9.93;;;7.68;;
69030;SDS011;56083;48.774;8.942;2023-05-14T07:11:32;12.52;;;7.30;;
69030;SDS011;56083;48.774;8.942;2023-05-14T07:13:58;12.88;;;7.40;;
69030;SDS011;56083;48.774;8.942;2023-05-14T07:16:24;10.90;;;7.22;;
69030;SDS011;56083;48.774;8.942;2023-05-14T07:18:50;11.05;;;7.00;;
69030;SDS011;56083;48.774;8.942;2023-05-14T07:21:16;10.23;;;6.80;;
69030;SDS011;56083;48.774;8.942;2023-05-14T07:23:41;15.65;;;7.32;;
69030;SDS011;56083;48.774;8.942;2023-05-14T07:26:07;9.60;;;7.40;;
69030;SDS011;56083;48.774;8.942;2023-05-14T07:28:34;8.10;;;7.15;;
69030;SDS011;56083;48.774;8.942;2023-05-14T07:31:00;9.43;;;7.10;;
69030;SDS011;56083;48.774;8.942;2023-05-14T07:33:26;12.63;;;7.93;;
69030;SDS011;56083;48.774;8.942;2023-05-14T07:35:52;10.40;;;7.20;;
69030;SDS011;56083;48.774;8.942;2023-05-14T07:38:18;16.00;;;7.97;;
69030;SDS011;56083;48.774;8.942;2023-05-14T07:40:44;11.43;;;8.18;;
69030;SDS011;56083;48.774;8.942;2023-05-14T07:43:11;10.98;;;6.40;;
69030;SDS011;56083;48.774;8.942;2023-05-14T07:45:37;12.45;;;7.78;;
69030;SDS011;56083;48.774;8.942;2023-05-14T07:48:03;9.55;;;6.90;;
69030;SDS011;56083;48.774;8.942;2023-05-14T07:50:29;10.98;;;7.80;;
69030;SDS011;56083;48.774;8.942;2023-05-14T07:52:55;10.82;;;7.80;;
69030;SDS011;56083;48.774;8.942;2023-05-14T07:55:21;12.50;;;7.85;;
69030;SDS011;56083;48.774;8.942;2023-05-14T07:57:46;12.98;;;7.35;;
69030;SDS011;56083;48.774;8.942;2023-05-14T08:00:12;9.05;;;7.35;;
69030;SDS011;56083;48.774;8.942;2023-05-14T08:02:38;10.65;;;7.43;;
69030;SDS011;56083;48.774;8.942;2023-05-14T08:05:04;11.32;;;7.32;;
69030;SDS011;56083;48.774;8.942;2023-05-14T08:07:31;11.10;;;7.75;;
69030;SDS011;56083;48.774;8.942;2023-05-14T08:09:57;9.57;;;6.97;;
69030;SDS011;56083;48.774;8.942;2023-05-14T08:12:23;9.48;;;7.53;;
69030;SDS011;56083;48.774;8.942;2023-05-14T08:14:49;9.52;;;7.32;;
69030;SDS011;56083;48.774;8.942;2023-05-14T08:17:15;13.18;;;8.40;;
69030;SDS011;56083;48.774;8.942;2023-05-14T08:19:41;14.55;;;7.82;;
69030;SDS011;56083;48.774;8.942;2023-05-14T08:22:07;10.75;;;7.75;;
69030;SDS011;56083;48.774;8.942;2023-05-14T08:24:33;9.90;;;7.80;;
69030;SDS011;56083;48.774;8.942;2023-05-14T08:26:58;9.32;;;8.00;;
69030;SDS011;56083;48.774;8.942;2023-05-14T08:29:24;11.43;;;7.32;;
69030;SDS011;56083;48.774;8.942;2023-05-14T08:31:50;11.30;;;7.80;;
69030;SDS011;56083;48.774;8.942;2023-05-14T08:34:16;8.63;;;6.93;;
69030;SDS011;56083;48.774;8.942;2023-05-14T08:36:41;11.77;;;8.00;;
69030;SDS011;56083;48.774;8.942;2023-05-14T08:39:07;10.05;;;7.90;;
69030;SDS011;56083;48.774;8.942;2023-05-14T08:41:33;11.55;;;7.03;;
69030;SDS011;56083;48.774;8.942;2023-05-14T08:46:39;9.70;;;6.13;;
69030;SDS011;56083;48.774;8.942;2023-05-14T08:49:31;8.10;;;5.95;;
69030;SDS011;56083;48.774;8.942;2023-05-14T08:52:04;7.43;;;5.75;;
69030;SDS011;56083;48.774;8.942;2023-05-14T08:54:31;6.40;;;5.57;;
69030;SDS011;56083;48.774;8.942;2023-05-14T08:56:56;7.55;;;5.95;;
69030;SDS011;56083;48.774;8.942;2023-05-14T08:59:23;7.78;;;5.93;;
69030;SDS011;56083;48.774;8.942;2023-05-14T09:01:50;8.75;;;5.40;;
69030;SDS011;56083;48.774;8.942;2023-05-14T09:04:22;8.20;;;5.25;;
69030;SDS011;56083;48.774;8.942;2023-05-14T09:06:49;10.77;;;4.85;;
69030;SDS011;56083;48.774;8.942;2023-05-14T09:09:16;7.70;;;5.95;;
69030;SDS011;56083;48.774;8.942;2023-05-14T09:11:45;8.32;;;6.05;;
69030;SDS011;56083;48.774;8.942;2023-05-14T09:14:12;7.95;;;6.88;;
69030;SDS011;56083;48.774;8.942;2023-05-14T09:16:39;9.52;;;6.45;;
69030;SDS011;56083;48.774;8.942;2023-05-14T09:19:06;8.05;;;6.93;;
69030;SDS011;56083;48.774;8.942;2023-05-14T09:21:33;7.03;;;6.32;;
69030;SDS011;56083;48.774;8.942;2023-05-14T09:23:58;7.10;;;5.95;;
69030;SDS011;56083;48.774;8.942;2023-05-14T09:26:25;6.07;;;5.07;;
69030;SDS011;56083;48.774;8.942;2023-05-14T09:28:55;7.38;;;6.25;;
69030;SDS011;56083;48.774;8.942;2023-05-14T09:31:24;7.45;;;6.25;;
69030;SDS011;56083;48.774;8.942;2023-05-14T09:33:50;7.20;;;5.50;;
69030;SDS011;56083;48.774;8.942;2023-05-14T09:36:16;7.57;;;6.55;;
69030;SDS011;56083;48.774;8.942;2023-05-14T09:38:43;9.00;;;7.40;;
69030;SDS011;56083;48.774;8.942;2023-05-14T09:41:08;9.20;;;6.88;;
69030;SDS011;56083;48.774;8.942;2023-05-14T09:43:34;8.18;;;6.35;;
69030;SDS011;56083;48.774;8.942;2023-05-14T09:46:00;7.93;;;5.75;;
69030;SDS011;56083;48.774;8.942;2023-05-14T09:48:25;6.43;;;4.93;;
69030;SDS011;56083;48.774;8.942;2023-05-14T09:50:51;6.65;;;5.07;;
69030;SDS011;56083;48.774;8.942;2023-05-14T09:53:17;8.13;;;5.85;;
69030;SDS011;56083;48.774;8.942;2023-05-14T09:55:43;7.43;;;6.53;;
69030;SDS011;56083;48.774;8.942;2023-05-14T09:58:09;7.68;;;5.47;;
69030;SDS011;56083;48.774;8.942;2023-05-14T10:00:35;8.20;;;5.90;;
69030;SDS011;56083;48.774;8.942;2023-05-14T10:03:05;7.82;;;6.30;;
69030;SDS011;56083;48.774;8.942;2023-05-14T10:05:35;6.68;;;5.93;;
69030;SDS011;56083;48.774;8.942;2023-05-14T10:08:07;9.35;;;6.55;;
69030;SDS011;56083;48.774;8.942;2023-05-14T10:10:36;9.40;;;5.40;;
69030;SDS011;56083;48.774;8.942;2023-05-14T10:13:03;7.00;;;5.30;;
69030;SDS011;56083;48.774;8.942;2023-05-14T10:15:47;5.72;;;5.03;;
69030;SDS011;56083;48.774;8.942;2023-05-14T10:18:30;7.10;;;5.20;;
69030;SDS011;56083;48.774;8.942;2023-05-14T10:21:03;9.52;;;4.95;;
69030;SDS011;56083;48.774;8.942;2023-05-14T10:23:31;6.72;;;5.35;;
69030;SDS011;56083;48.774;8.942;2023-05-14T10:25:58;7.07;;;5.75;;
69030;SDS011;56083;48.774;8.942;2023-05-14T10:28:24;6.55;;;5.22;;
69030;SDS011;56083;48.774;8.942;2023-05-14T10:30:50;5.55;;;4.93;;
69030;SDS011;56083;48.774;8.942;2023-05-14T10:33:16;6.70;;;5.82;;
69030;SDS011;56083;48.774;8.942;2023-05-14T10:38:32;5.50;;;4.90;;
69030;SDS011;56083;48.774;8.942;2023-05-14T10:41:00;6.00;;;5.22;;
69030;SDS011;56083;48.774;8.942;2023-05-14T10:43:26;7.97;;;5.72;;
69030;SDS011;56083;48.774;8.942;2023-05-14T10:45:55;5.93;;;4.90;;
69030;SDS011;56083;48.774;8.942;2023-05-14T10:48:22;8.23;;;5.55;;
69030;SDS011;56083;48.774;8.942;2023-05-14T10:50:49;6.70;;;5.05;;
69030;SDS011;56083;48.774;8.942;2023-05-14T10:53:17;7.70;;;5.35;;
69030;SDS011;56083;48.774;8.942;2023-05-14T10:55:43;7.60;;;5.95;;
69030;SDS011;56083;48.774;8.942;2023-05-14T10:58:10;6.13;;;4.80;;
69030;SDS011;56083;48.774;8.942;2023-05-14T11:00:36;6.53;;;5.30;;
69030;SDS011;56083;48.774;8.942;2023-05-14T11:03:03;7.97;;;5.38;;
69030;SDS011;56083;48.774;8.942;2023-05-14T11:05:29;4.93;;;4.15;;
69030;SDS011;56083;48.774;8.942;2023-05-14T11:07:55;4.50;;;3.92;;
69030;SDS011;56083;48.774;8.942;2023-05-14T11:10:21;6.57;;;3.70;;
69030;SDS011;56083;48.774;8.942;2023-05-14T11:12:49;6.45;;;3.88;;
69030;SDS011;56083;48.774;8.942;2023-05-14T11:15:17;4.07;;;3.67;;
69030;SDS011;56083;48.774;8.942;2023-05-14T11:17:45;6.97;;;4.40;;
69030;SDS011;56083;48.774;8.942;2023-05-14T11:20:12;4.20;;;3.80;;
69030;SDS011;56083;48.774;8.942;2023-05-14T11:22:38;5.53;;;4.65;;
69030;SDS011;56083;48.774;8.942;2023-05-14T11:25:05;5.07;;;4.50;;
69030;SDS011;56083;48.774;8.942;2023-05-14T11:27:36;5.75;;;5.15;;
69030;SDS011;56083;48.774;8.942;2023-05-14T11:30:03;7.43;;;5.30;;
69030;SDS011;56083;48.774;8.942;2023-05-14T11:32:32;9.75;;;5.50;;
69030;SDS011;56083;48.774;8.942;2023-05-14T11:34:57;9.27;;;5.55;;
69030;SDS011;56083;48.774;8.942;2023-05-14T11:37:23;6.78;;;5.05;;
69030;SDS011;56083;48.774;8.942;2023-05-14T11:39:49;6.03;;;4.88;;
69030;SDS011;56083;48.774;8.942;2023-05-14T11:42:17;6.32;;;4.55;;
69030;SDS011;56083;48.774;8.942;2023-05-14T11:44:47;4.78;;;4.30;;
69030;SDS011;56083;48.774;8.942;2023-05-14T11:47:14;7.18;;;4.55;;
69030;SDS011;56083;48.774;8.942;2023-05-14T11:49:41;6.35;;;4.97;;
69030;SDS011;56083;48.774;8.942;2023-05-14T11:52:07;5.95;;;5.13;;
69030;SDS011;56083;48.774;8.942;2023-05-14T11:54:38;6.05;;;5.15;;
69030;SDS011;56083;48.774;8.942;2023-05-14T11:57:09;5.40;;;4.82;;
69030;SDS011;56083;48.774;8.942;2023-05-14T11:59:35;7.00;;;4.93;;
69030;SDS011;56083;48.774;8.942;2023-05-14T12:02:02;5.55;;;4.28;;
69030;SDS011;56083;48.774;8.942;2023-05-14T12:04:31;5.10;;;4.10;;
69030;SDS011;56083;48.774;8.942;2023-05-14T12:06:57;5.35;;;4.20;;
69030;SDS011;56083;48.774;8.942;2023-05-14T12:09:24;5.90;;;4.07;;
69030;SDS011;56083;48.774;8.942;2023-05-14T12:11:50;4.90;;;3.90;;
69030;SDS011;56083;48.774;8.942;2023-05-14T12:14:23;5.30;;;3.90;;
69030;SDS011;56083;48.774;8.942;2023-05-14T12:16:49;5.77;;;3.90;;
69030;SDS011;56083;48.774;8.942;2023-05-14T12:19:16;3.90;;;3.55;;
69030;SDS011;56083;48.774;8.942;2023-05-14T12:21:47;5.88;;;3.85;;
69030;SDS011;56083;48.774;8.942;2023-05-14T12:24:16;3.85;;;3.35;;
69030;SDS011;56083;48.774;8.942;2023-05-14T12:26:45;7.18;;;3.47;;
69030;SDS011;56083;48.774;8.942;2023-05-14T12:29:12;3.40;;;3.10;;
69030;SDS011;56083;48.774;8.942;2023-05-14T12:31:46;4.82;;;3.55;;
69030;SDS011;56083;48.774;8.942;2023-05-14T12:36:38;3.70;;;3.30;;
69030;SDS011;56083;48.774;8.942;2023-05-14T12:39:04;5.53;;;3.83;;
69030;SDS011;56083;48.774;8.942;2023-05-14T12:41:30;5.38;;;3.88;;
69030;SDS011;56083;48.774;8.942;2023-05-14T12:43:56;5.72;;;3.53;;
69030;SDS011;56083;48.774;8.942;2023-05-14T12:46:22;5.43;;;3.88;;
69030;SDS011;56083;48.774;8.942;2023-05-14T12:48:48;4.28;;;3.60;;
69030;SDS011;56083;48.774;8.942;2023-05-14T12:51:13;4.72;;;3.08;;
69030;SDS011;56083;48.774;8.942;2023-05-14T12:53:39;4.72;;;3.10;;
69030;SDS011;56083;48.774;8.942;2023-05-14T12:56:05;3.92;;;3.28;;
69030;SDS011;56083;48.774;8.942;2023-05-14T12:58:31;6.70;;;2.80;;
69030;SDS011;56083;48.774;8.942;2023-05-14T13:00:56;4.53;;;2.95;;
69030;SDS011;56083;48.774;8.942;2023-05-14T13:03:22;4.10;;;3.35;;
69030;SDS011;56083;48.774;8.942;2023-05-14T13:05:49;4.68;;;3.40;;
69030;SDS011;56083;48.774;8.942;2023-05-14T13:08:16;6.30;;;3.45;;
69030;SDS011;56083;48.774;8.942;2023-05-14T13:10:42;5.05;;;3.40;;
69030;SDS011;56083;48.774;8.942;2023-05-14T13:13:09;4.13;;;3.70;;
69030;SDS011;56083;48.774;8.942;2023-05-14T13:15:35;7.53;;;3.95;;
69030;SDS011;56083;48.774;8.942;2023-05-14T13:18:01;8.23;;;3.83;;
69030;SDS011;56083;48.774;8.942;2023-05-14T13:20:27;5.90;;;4.00;;
69030;SDS011;56083;48.774;8.942;2023-05-14T13:22:55;6.20;;;3.72;;
69030;SDS011;56083;48.774;8.942;2023-05-14T13:25:21;4.63;;;3.53;;
69030;SDS011;56083;48.774;8.942;2023-05-14T13:27:46;5.28;;;4.05;;
69030;SDS011;56083;48.774;8.942;2023-05-14T13:30:15;8.10;;;4.30;;
69030;SDS011;56083;48.774;8.942;2023-05-14T13:32:42;5.55;;;4.18;;
69030;SDS011;56083;48.774;8.942;2023-05-14T13:35:08;6.53;;;3.83;;
69030;SDS011;56083;48.774;8.942;2023-05-14T13:37:34;5.43;;;3.67;;
69030;SDS011;56083;48.774;8.942;2023-05-14T13:39:59;4.53;;;3.63;;
69030;SDS011;56083;48.774;8.942;2023-05-14T13:42:25;7.90;;;3.95;;
69030;SDS011;56083;48.774;8.942;2023-05-14T13:44:51;7.28;;;4.00;;
69030;SDS011;56083;48.774;8.942;2023-05-14T13:47:16;5.05;;;3.75;;
69030;SDS011;56083;48.774;8.942;2023-05-14T13:49:42;6.47;;;3.63;;
69030;SDS011;56083;48.774;8.942;2023-05-14T13:52:08;4.07;;;3.60;;
69030;SDS011;56083;48.774;8.942;2023-05-14T13:54:33;4.80;;;3.70;;
69030;SDS011;56083;48.774;8.942;2023-05-14T13:56:59;5.65;;;3.60;;
69030;SDS011;56083;48.774;8.942;2023-05-14T13:59:24;5.47;;;3.70;;
69030;SDS011;56083;48.774;8.942;2023-05-14T14:01:50;4.50;;;3.80;;
69030;SDS011;56083;48.774;8.942;2023-05-14T14:04:16;4.07;;;3.42;;
69030;SDS011;56083;48.774;8.942;2023-05-14T14:06:41;4.60;;;3.38;;
69030;SDS011;56083;48.774;8.942;2023-05-14T14:09:07;5.18;;;3.58;;
69030;SDS011;56083;48.774;8.942;2023-05-14T14:11:33;4.30;;;3.45;;
69030;SDS011;56083;48.774;8.942;2023-05-14T14:13:59;4.60;;;3.78;;
69030;SDS011;56083;48.774;8.942;2023-05-14T14:16:25;4.55;;;3.55;;
69030;SDS011;56083;48.774;8.942;2023-05-14T14:18:50;5.25;;;3.22;;
69030;SDS011;56083;48.774;8.942;2023-05-14T14:21:16;3.97;;;3.40;;
69030;SDS011;56083;48.774;8.942;2023-05-14T14:23:45;5.88;;;3.25;;
69030;SDS011;56083;48.774;8.942;2023-05-14T14:26:11;6.03;;;3.17;;
69030;SDS011;56083;48.774;8.942;2023-05-14T14:28:37;4.13;;;2.95;;
69030;SDS011;56083;48.774;8.942;2023-05-14T14:31:02;5.35;;;3.20;;
69030;SDS011;56083;48.774;8.942;2023-05-14T14:33:28;3.83;;;3.10;;
69030;SDS011;56083;48.774;8.942;2023-05-14T14:35:56;5.20;;;3.25;;
69030;SDS011;56083;48.774;8.942;2023-05-14T14:38:22;4.70;;;3.78;;
69030;SDS011;56083;48.774;8.942;2023-05-14T14:40:48;5.20;;;3.70;;
69030;SDS011;56083;48.774;8.942;2023-05-14T14:43:15;4.57;;;3.60;;
69030;SDS011;56083;48.774;8.942;2023-05-14T14:45:41;4.53;;;3.72;;
69030;SDS011;56083;48.774;8.942;2023-05-14T14:51:06;6.22;;;3.80;;